sensor_id;sensor_type;location;lat;lon;timestamp;P1;durP1;ratioP1;P2;durP2;ratioP2
34902;SDS011;21114;44.840;0.214;2024-01-15T00:01:03;33.67;;;26.50;;
34902;SDS011;21114;44.840;0.214;2024-01-15T00:03:29;31.17;;;26.27;;
34902;SDS011;21114;44.840;0.214;2024-01-15T00:05:55;33.90;;;26.27;;
34902;SDS011;21114;44.840;0.214;2024-01-15T00:08:21;31.60;;;27.15;;
34902;SDS011;21114;44.840;0.214;2024-01-15T00:10:47;32.63;;;26.73;;
34902;SDS011;21114;44.840;0.214;2024-01-15T00:13:13;33.47;;;26.65;;
34902;SDS011;21114;44.840;0.214;2024-01-15T00:15:39;28.85;;;25.65;;
34902;SDS011;21114;44.840;0.214;2024-01-15T00:18:05;34.08;;;26.98;;
34902;SDS011;21114;44.840;0.214;2024-01-15T00:20:31;35.17;;;26.73;;
34902;SDS011;21114;44.840;0.214;2024-01-15T00:22:57;31.50;;;27.70;;
34902;SDS011;21114;44.840;0.214;2024-01-15T00:25:23;33.88;;;26.77;;
34902;SDS011;21114;44.840;0.214;2024-01-15T00:27:49;35.53;;;27.65;;
34902;SDS011;21114;44.840;0.214;2024-01-15T00:30:15;33.00;;;28.38;;
34902;SDS011;21114;44.840;0.214;2024-01-15T00:32:41;34.90;;;27.08;;
34902;SDS011;21114;44.840;0.214;2024-01-15T00:35:08;31.58;;;27.27;;
34902;SDS011;21114;44.840;0.214;2024-01-15T00:37:34;31.83;;;26.95;;
34902;SDS011;21114;44.840;0.214;2024-01-15T00:40:00;32.72;;;25.55;;
34902;SDS011;21114;44.840;0.214;2024-01-15T00:42:26;35.28;;;27.95;;
34902;SDS011;21114;44.840;0.214;2024-01-15T00:44:52;37.90;;;27.85;;
34902;SDS011;21114;44.840;0.214;2024-01-15T00:47:19;38.65;;;32.63;;
34902;SDS011;21114;44.840;0.214;2024-01-15T00:49:45;35.88;;;29.25;;
34902;SDS011;21114;44.840;0.214;2024-01-15T00:52:11;31.65;;;28.25;;
34902;SDS011;21114;44.840;0.214;2024-01-15T00:54:37;31.95;;;26.30;;
34902;SDS011;21114;44.840;0.214;2024-01-15T00:57:05;30.77;;;26.40;;
34902;SDS011;21114;44.840;0.214;2024-01-15T00:59:31;31.50;;;28.00;;
34902;SDS011;21114;44.840;0.214;2024-01-15T01:01:57;36.65;;;28.00;;
34902;SDS011;21114;44.840;0.214;2024-01-15T01:04:23;33.33;;;28.95;;
34902;SDS011;21114;44.840;0.214;2024-01-15T01:06:49;30.98;;;26.20;;
34902;SDS011;21114;44.840;0.214;2024-01-15T01:09:15;35.55;;;29.98;;
34902;SDS011;21114;44.840;0.214;2024-01-15T01:11:41;31.20;;;25.50;;
34902;SDS011;21114;44.840;0.214;2024-01-15T01:14:07;30.58;;;25.08;;
34902;SDS011;21114;44.840;0.214;2024-01-15T01:16:33;31.15;;;26.42;;
34902;SDS011;21114;44.840;0.214;2024-01-15T01:19:04;32.33;;;26.15;;
34902;SDS011;21114;44.840;0.214;2024-01-15T01:21:30;32.22;;;26.35;;
34902;SDS011;21114;44.840;0.214;2024-01-15T01:23:56;32.20;;;26.48;;
34902;SDS011;21114;44.840;0.214;2024-01-15T01:26:22;32.40;;;25.33;;
34902;SDS011;21114;44.840;0.214;2024-01-15T01:28:48;31.25;;;24.95;;
34902;SDS011;21114;44.840;0.214;2024-01-15T01:31:15;33.13;;;27.80;;
34902;SDS011;21114;44.840;0.214;2024-01-15T01:33:41;29.95;;;25.02;;
34902;SDS011;21114;44.840;0.214;2024-01-15T01:36:08;29.45;;;25.05;;
34902;SDS011;21114;44.840;0.214;2024-01-15T01:38:34;26.95;;;22.33;;
34902;SDS011;21114;44.840;0.214;2024-01-15T01:41:00;30.88;;;25.65;;
34902;SDS011;21114;44.840;0.214;2024-01-15T01:43:26;32.92;;;25.73;;
34902;SDS011;21114;44.840;0.214;2024-01-15T01:45:52;33.92;;;26.80;;
34902;SDS011;21114;44.840;0.214;2024-01-15T01:49:09;30.10;;;25.98;;
34902;SDS011;21114;44.840;0.214;2024-01-15T01:51:35;31.02;;;26.25;;
34902;SDS011;21114;44.840;0.214;2024-01-15T01:54:02;35.53;;;27.23;;
34902;SDS011;21114;44.840;0.214;2024-01-15T01:56:28;32.85;;;26.20;;
34902;SDS011;21114;44.840;0.214;2024-01-15T01:58:55;32.00;;;26.08;;
34902;SDS011;21114;44.840;0.214;2024-01-15T02:01:21;36.70;;;28.67;;
34902;SDS011;21114;44.840;0.214;2024-01-15T02:03:47;36.40;;;29.15;;
34902;SDS011;21114;44.840;0.214;2024-01-15T02:06:13;35.15;;;26.83;;
34902;SDS011;21114;44.840;0.214;2024-01-15T02:08:39;33.05;;;26.88;;
34902;SDS011;21114;44.840;0.214;2024-01-15T02:11:05;33.53;;;28.20;;
34902;SDS011;21114;44.840;0.214;2024-01-15T02:13:32;32.38;;;26.83;;
34902;SDS011;21114;44.840;0.214;2024-01-15T02:15:58;36.15;;;28.15;;
34902;SDS011;21114;44.840;0.214;2024-01-15T02:18:24;35.10;;;29.13;;
34902;SDS011;21114;44.840;0.214;2024-01-15T02:20:50;37.03;;;29.38;;
34902;SDS011;21114;44.840;0.214;2024-01-15T02:23:16;33.80;;;28.65;;
34902;SDS011;21114;44.840;0.214;2024-01-15T02:25:43;34.25;;;29.42;;
34902;SDS011;21114;44.840;0.214;2024-01-15T02:29:00;36.10;;;29.05;;
34902;SDS011;21114;44.840;0.214;2024-01-15T02:31:27;36.67;;;29.48;;
34902;SDS011;21114;44.840;0.214;2024-01-15T02:33:53;33.53;;;27.48;;
34902;SDS011;21114;44.840;0.214;2024-01-15T02:36:19;36.80;;;29.85;;
34902;SDS011;21114;44.840;0.214;2024-01-15T02:38:45;34.25;;;28.80;;
34902;SDS011;21114;44.840;0.214;2024-01-15T02:41:11;33.40;;;28.98;;
34902;SDS011;21114;44.840;0.214;2024-01-15T02:43:39;33.10;;;26.73;;
34902;SDS011;21114;44.840;0.214;2024-01-15T02:46:06;32.33;;;25.73;;
34902;SDS011;21114;44.840;0.214;2024-01-15T02:48:32;33.95;;;26.88;;
34902;SDS011;21114;44.840;0.214;2024-01-15T02:51:00;34.08;;;25.98;;
34902;SDS011;21114;44.840;0.214;2024-01-15T02:53:26;34.95;;;27.25;;
34902;SDS011;21114;44.840;0.214;2024-01-15T02:55:52;28.95;;;25.35;;
34902;SDS011;21114;44.840;0.214;2024-01-15T02:58:18;33.78;;;28.17;;
34902;SDS011;21114;44.840;0.214;2024-01-15T03:00:44;33.63;;;26.23;;
34902;SDS011;21114;44.840;0.214;2024-01-15T03:03:11;35.65;;;28.10;;
34902;SDS011;21114;44.840;0.214;2024-01-15T03:05:37;34.13;;;26.65;;
34902;SDS011;21114;44.840;0.214;2024-01-15T03:08:03;30.60;;;25.50;;
34902;SDS011;21114;44.840;0.214;2024-01-15T03:10:29;33.25;;;27.13;;
34902;SDS011;21114;44.840;0.214;2024-01-15T03:12:56;30.73;;;25.85;;
34902;SDS011;21114;44.840;0.214;2024-01-15T03:16:11;29.25;;;25.75;;
34902;SDS011;21114;44.840;0.214;2024-01-15T03:18:37;30.30;;;26.05;;
34902;SDS011;21114;44.840;0.214;2024-01-15T03:21:04;29.25;;;23.85;;
34902;SDS011;21114;44.840;0.214;2024-01-15T03:24:20;29.98;;;26.33;;
34902;SDS011;21114;44.840;0.214;2024-01-15T03:26:46;27.50;;;24.55;;
34902;SDS011;21114;44.840;0.214;2024-01-15T03:29:12;29.08;;;25.98;;
34902;SDS011;21114;44.840;0.214;2024-01-15T03:31:38;29.10;;;24.35;;
34902;SDS011;21114;44.840;0.214;2024-01-15T03:34:04;36.25;;;32.22;;
34902;SDS011;21114;44.840;0.214;2024-01-15T03:36:30;29.67;;;25.23;;
34902;SDS011;21114;44.840;0.214;2024-01-15T03:38:56;30.08;;;25.38;;
34902;SDS011;21114;44.840;0.214;2024-01-15T03:41:22;28.63;;;23.55;;
34902;SDS011;21114;44.840;0.214;2024-01-15T03:43:48;31.95;;;28.30;;
34902;SDS011;21114;44.840;0.214;2024-01-15T03:46:14;29.70;;;24.52;;
34902;SDS011;21114;44.840;0.214;2024-01-15T03:48:40;30.05;;;25.02;;
34902;SDS011;21114;44.840;0.214;2024-01-15T03:51:06;29.02;;;25.92;;
34902;SDS011;21114;44.840;0.214;2024-01-15T03:53:32;31.33;;;26.25;;
34902;SDS011;21114;44.840;0.214;2024-01-15T03:55:58;33.05;;;25.92;;
34902;SDS011;21114;44.840;0.214;2024-01-15T03:58:24;29.98;;;26.77;;
34902;SDS011;21114;44.840;0.214;2024-01-15T04:00:50;29.70;;;25.58;;
34902;SDS011;21114;44.840;0.214;2024-01-15T04:03:16;30.65;;;26.42;;
34902;SDS011;21114;44.840;0.214;2024-01-15T04:05:43;29.60;;;24.48;;
34902;SDS011;21114;44.840;0.214;2024-01-15T04:08:09;29.85;;;24.02;;
34902;SDS011;21114;44.840;0.214;2024-01-15T04:10:35;28.80;;;25.75;;
34902;SDS011;21114;44.840;0.214;2024-01-15T04:13:01;29.33;;;26.02;;
34902;SDS011;21114;44.840;0.214;2024-01-15T04:15:28;29.83;;;25.13;;
34902;SDS011;21114;44.840;0.214;2024-01-15T04:17:54;34.20;;;25.15;;
34902;SDS011;21114;44.840;0.214;2024-01-15T04:20:20;30.88;;;26.00;;
34902;SDS011;21114;44.840;0.214;2024-01-15T04:22:46;30.17;;;25.17;;
34902;SDS011;21114;44.840;0.214;2024-01-15T04:25:12;31.85;;;25.48;;
34902;SDS011;21114;44.840;0.214;2024-01-15T04:27:39;27.40;;;24.15;;
34902;SDS011;21114;44.840;0.214;2024-01-15T04:30:05;31.40;;;26.75;;
34902;SDS011;21114;44.840;0.214;2024-01-15T04:32:31;31.42;;;25.58;;
34902;SDS011;21114;44.840;0.214;2024-01-15T04:34:57;29.92;;;24.55;;
34902;SDS011;21114;44.840;0.214;2024-01-15T04:37:23;28.27;;;24.27;;
34902;SDS011;21114;44.840;0.214;2024-01-15T04:39:49;28.33;;;25.35;;
34902;SDS011;21114;44.840;0.214;2024-01-15T04:42:17;30.45;;;24.80;;
34902;SDS011;21114;44.840;0.214;2024-01-15T04:44:43;32.28;;;25.52;;
34902;SDS011;21114;44.840;0.214;2024-01-15T04:47:10;28.30;;;24.65;;
34902;SDS011;21114;44.840;0.214;2024-01-15T04:49:36;28.60;;;23.83;;
34902;SDS011;21114;44.840;0.214;2024-01-15T04:52:02;29.83;;;23.77;;
34902;SDS011;21114;44.840;0.214;2024-01-15T04:54:28;27.35;;;24.48;;
34902;SDS011;21114;44.840;0.214;2024-01-15T04:56:54;28.80;;;25.10;;
34902;SDS011;21114;44.840;0.214;2024-01-15T04:59:20;24.13;;;21.30;;
34902;SDS011;21114;44.840;0.214;2024-01-15T05:01:46;31.10;;;25.30;;
34902;SDS011;21114;44.840;0.214;2024-01-15T05:04:13;29.80;;;24.88;;
34902;SDS011;21114;44.840;0.214;2024-01-15T05:06:39;30.58;;;23.48;;
34902;SDS011;21114;44.840;0.214;2024-01-15T05:09:05;28.00;;;23.45;;
34902;SDS011;21114;44.840;0.214;2024-01-15T05:11:32;31.65;;;25.50;;
34902;SDS011;21114;44.840;0.214;2024-01-15T05:13:58;31.60;;;25.23;;
34902;SDS011;21114;44.840;0.214;2024-01-15T05:16:24;31.08;;;24.27;;
34902;SDS011;21114;44.840;0.214;2024-01-15T05:18:50;32.42;;;26.00;;
34902;SDS011;21114;44.840;0.214;2024-01-15T05:21:16;28.75;;;23.95;;
34902;SDS011;21114;44.840;0.214;2024-01-15T05:23:42;29.17;;;26.02;;
34902;SDS011;21114;44.840;0.214;2024-01-15T05:26:08;34.47;;;25.70;;
34902;SDS011;21114;44.840;0.214;2024-01-15T05:28:34;29.88;;;23.83;;
34902;SDS011;21114;44.840;0.214;2024-01-15T05:31:00;29.20;;;23.85;;
34902;SDS011;21114;44.840;0.214;2024-01-15T05:33:26;26.65;;;23.67;;
34902;SDS011;21114;44.840;0.214;2024-01-15T05:35:52;30.02;;;24.85;;
34902;SDS011;21114;44.840;0.214;2024-01-15T05:38:19;28.05;;;22.20;;
34902;SDS011;21114;44.840;0.214;2024-01-15T05:40:45;29.48;;;23.95;;
34902;SDS011;21114;44.840;0.214;2024-01-15T05:43:11;28.80;;;23.92;;
34902;SDS011;21114;44.840;0.214;2024-01-15T05:45:38;27.15;;;23.63;;
34902;SDS011;21114;44.840;0.214;2024-01-15T05:48:52;29.40;;;23.90;;
34902;SDS011;21114;44.840;0.214;2024-01-15T05:51:18;29.15;;;24.55;;
34902;SDS011;21114;44.840;0.214;2024-01-15T05:53:44;26.52;;;22.52;;
34902;SDS011;21114;44.840;0.214;2024-01-15T05:56:10;28.25;;;21.85;;
34902;SDS011;21114;44.840;0.214;2024-01-15T05:58:37;28.75;;;24.00;;
34902;SDS011;21114;44.840;0.214;2024-01-15T06:01:03;31.60;;;26.58;;
34902;SDS011;21114;44.840;0.214;2024-01-15T06:03:29;29.50;;;24.98;;
34902;SDS011;21114;44.840;0.214;2024-01-15T06:05:55;26.90;;;23.92;;
34902;SDS011;21114;44.840;0.214;2024-01-15T06:08:21;27.80;;;24.70;;
34902;SDS011;21114;44.840;0.214;2024-01-15T06:10:47;34.25;;;25.45;;
34902;SDS011;21114;44.840;0.214;2024-01-15T06:13:13;28.17;;;23.63;;
34902;SDS011;21114;44.840;0.214;2024-01-15T06:15:39;31.73;;;24.77;;
34902;SDS011;21114;44.840;0.214;2024-01-15T06:18:05;28.08;;;22.30;;
34902;SDS011;21114;44.840;0.214;2024-01-15T06:20:31;27.73;;;23.23;;
34902;SDS011;21114;44.840;0.214;2024-01-15T06:22:57;30.65;;;24.58;;
34902;SDS011;21114;44.840;0.214;2024-01-15T06:25:23;29.95;;;23.33;;
34902;SDS011;21114;44.840;0.214;2024-01-15T06:27:49;29.23;;;25.25;;
34902;SDS011;21114;44.840;0.214;2024-01-15T06:30:15;27.48;;;22.25;;
34902;SDS011;21114;44.840;0.214;2024-01-15T06:32:42;31.20;;;24.02;;
34902;SDS011;21114;44.840;0.214;2024-01-15T06:35:08;28.85;;;24.50;;
34902;SDS011;21114;44.840;0.214;2024-01-15T06:37:35;27.10;;;23.02;;
34902;SDS011;21114;44.840;0.214;2024-01-15T06:40:01;29.08;;;25.88;;
34902;SDS011;21114;44.840;0.214;2024-01-15T06:42:28;28.88;;;24.67;;
34902;SDS011;21114;44.840;0.214;2024-01-15T06:44:54;26.98;;;23.58;;
34902;SDS011;21114;44.840;0.214;2024-01-15T06:47:20;25.40;;;21.70;;
34902;SDS011;21114;44.840;0.214;2024-01-15T06:49:46;32.20;;;24.10;;
34902;SDS011;21114;44.840;0.214;2024-01-15T06:52:12;29.35;;;23.75;;
34902;SDS011;21114;44.840;0.214;2024-01-15T06:54:38;28.67;;;23.90;;
34902;SDS011;21114;44.840;0.214;2024-01-15T06:57:04;25.70;;;22.80;;
34902;SDS011;21114;44.840;0.214;2024-01-15T06:59:31;32.45;;;24.40;;
34902;SDS011;21114;44.840;0.214;2024-01-15T07:01:57;29.25;;;22.75;;
34902;SDS011;21114;44.840;0.214;2024-01-15T07:04:24;29.67;;;22.92;;
34902;SDS011;21114;44.840;0.214;2024-01-15T07:06:50;28.60;;;23.02;;
34902;SDS011;21114;44.840;0.214;2024-01-15T07:09:16;31.23;;;24.92;;
34902;SDS011;21114;44.840;0.214;2024-01-15T07:11:46;32.33;;;27.45;;
34902;SDS011;21114;44.840;0.214;2024-01-15T07:15:00;29.52;;;23.75;;
34902;SDS011;21114;44.840;0.214;2024-01-15T07:17:27;28.60;;;23.60;;
34902;SDS011;21114;44.840;0.214;2024-01-15T07:19:53;30.95;;;26.67;;
34902;SDS011;21114;44.840;0.214;2024-01-15T07:22:19;31.00;;;24.95;;
34902;SDS011;21114;44.840;0.214;2024-01-15T07:24:45;30.23;;;24.35;;
34902;SDS011;21114;44.840;0.214;2024-01-15T07:27:12;28.98;;;25.17;;
34902;SDS011;21114;44.840;0.214;2024-01-15T07:29:38;27.58;;;24.60;;
34902;SDS011;21114;44.840;0.214;2024-01-15T07:32:04;24.55;;;21.88;;
34902;SDS011;21114;44.840;0.214;2024-01-15T07:34:32;25.10;;;21.90;;
34902;SDS011;21114;44.840;0.214;2024-01-15T07:36:58;26.30;;;22.42;;
34902;SDS011;21114;44.840;0.214;2024-01-15T07:39:24;28.40;;;23.20;;
34902;SDS011;21114;44.840;0.214;2024-01-15T07:41:51;29.38;;;23.45;;
34902;SDS011;21114;44.840;0.214;2024-01-15T07:44:17;27.60;;;24.60;;
34902;SDS011;21114;44.840;0.214;2024-01-15T07:46:46;25.65;;;21.65;;
34902;SDS011;21114;44.840;0.214;2024-01-15T07:50:01;36.83;;;21.92;;
34902;SDS011;21114;44.840;0.214;2024-01-15T07:52:28;24.40;;;20.92;;
34902;SDS011;21114;44.840;0.214;2024-01-15T07:54:54;26.45;;;22.52;;
34902;SDS011;21114;44.840;0.214;2024-01-15T07:57:20;26.85;;;21.90;;
34902;SDS011;21114;44.840;0.214;2024-01-15T07:59:47;27.27;;;23.00;;
34902;SDS011;21114;44.840;0.214;2024-01-15T08:02:13;27.55;;;24.25;;
34902;SDS011;21114;44.840;0.214;2024-01-15T08:04:40;25.88;;;22.52;;
34902;SDS011;21114;44.840;0.214;2024-01-15T08:07:06;25.85;;;21.83;;
34902;SDS011;21114;44.840;0.214;2024-01-15T08:09:32;28.02;;;22.63;;
34902;SDS011;21114;44.840;0.214;2024-01-15T08:11:59;27.02;;;22.80;;
34902;SDS011;21114;44.840;0.214;2024-01-15T08:14:25;28.05;;;22.67;;
34902;SDS011;21114;44.840;0.214;2024-01-15T08:16:51;27.75;;;22.20;;
34902;SDS011;21114;44.840;0.214;2024-01-15T08:19:17;27.63;;;24.20;;
34902;SDS011;21114;44.840;0.214;2024-01-15T08:21:45;26.73;;;22.15;;
34902;SDS011;21114;44.840;0.214;2024-01-15T08:24:11;24.75;;;20.90;;
34902;SDS011;21114;44.840;0.214;2024-01-15T08:26:37;25.17;;;21.05;;
34902;SDS011;21114;44.840;0.214;2024-01-15T08:29:03;27.88;;;24.05;;
34902;SDS011;21114;44.840;0.214;2024-01-15T08:31:29;31.90;;;24.90;;
34902;SDS011;21114;44.840;0.214;2024-01-15T08:33:55;30.05;;;26.45;;
34902;SDS011;21114;44.840;0.214;2024-01-15T08:36:21;33.72;;;27.13;;
34902;SDS011;21114;44.840;0.214;2024-01-15T08:38:47;31.98;;;25.50;;
34902;SDS011;21114;44.840;0.214;2024-01-15T08:41:13;29.05;;;26.00;;
34902;SDS011;21114;44.840;0.214;2024-01-15T08:43:39;28.48;;;24.25;;
34902;SDS011;21114;44.840;0.214;2024-01-15T08:46:05;28.65;;;25.67;;
34902;SDS011;21114;44.840;0.214;2024-01-15T08:48:32;28.02;;;24.42;;
34902;SDS011;21114;44.840;0.214;2024-01-15T08:50:58;29.40;;;24.73;;
34902;SDS011;21114;44.840;0.214;2024-01-15T08:53:24;27.35;;;24.27;;
34902;SDS011;21114;44.840;0.214;2024-01-15T08:55:50;26.70;;;23.92;;
34902;SDS011;21114;44.840;0.214;2024-01-15T08:58:16;30.23;;;24.88;;
34902;SDS011;21114;44.840;0.214;2024-01-15T09:00:43;29.45;;;25.38;;
34902;SDS011;21114;44.840;0.214;2024-01-15T09:03:09;33.00;;;26.88;;
34902;SDS011;21114;44.840;0.214;2024-01-15T09:05:35;29.95;;;23.75;;
34902;SDS011;21114;44.840;0.214;2024-01-15T09:08:01;30.67;;;25.88;;
34902;SDS011;21114;44.840;0.214;2024-01-15T09:10:27;27.73;;;23.15;;
34902;SDS011;21114;44.840;0.214;2024-01-15T09:12:53;32.38;;;24.67;;
34902;SDS011;21114;44.840;0.214;2024-01-15T09:15:19;28.23;;;25.05;;
34902;SDS011;21114;44.840;0.214;2024-01-15T09:17:46;29.55;;;24.33;;
34902;SDS011;21114;44.840;0.214;2024-01-15T09:20:12;27.05;;;24.23;;
34902;SDS011;21114;44.840;0.214;2024-01-15T09:22:38;29.13;;;25.60;;
34902;SDS011;21114;44.840;0.214;2024-01-15T09:25:06;27.02;;;24.02;;
34902;SDS011;21114;44.840;0.214;2024-01-15T09:27:33;28.02;;;24.67;;
34902;SDS011;21114;44.840;0.214;2024-01-15T09:29:59;24.85;;;22.17;;
34902;SDS011;21114;44.840;0.214;2024-01-15T09:32:25;28.10;;;22.70;;
34902;SDS011;21114;44.840;0.214;2024-01-15T09:34:51;29.63;;;24.73;;
34902;SDS011;21114;44.840;0.214;2024-01-15T09:37:17;30.95;;;26.15;;
34902;SDS011;21114;44.840;0.214;2024-01-15T09:39:43;27.95;;;24.38;;
34902;SDS011;21114;44.840;0.214;2024-01-15T09:42:09;27.00;;;24.08;;
34902;SDS011;21114;44.840;0.214;2024-01-15T09:44:36;26.83;;;24.00;;
34902;SDS011;21114;44.840;0.214;2024-01-15T09:47:50;26.60;;;23.65;;
34902;SDS011;21114;44.840;0.214;2024-01-15T09:50:17;25.13;;;21.42;;
34902;SDS011;21114;44.840;0.214;2024-01-15T09:53:32;24.80;;;20.83;;
34902;SDS011;21114;44.840;0.214;2024-01-15T09:56:47;28.42;;;22.48;;
34902;SDS011;21114;44.840;0.214;2024-01-15T09:59:16;29.05;;;25.40;;
34902;SDS011;21114;44.840;0.214;2024-01-15T10:02:31;25.63;;;22.52;;
34902;SDS011;21114;44.840;0.214;2024-01-15T10:04:58;27.45;;;23.25;;
34902;SDS011;21114;44.840;0.214;2024-01-15T10:07:24;28.98;;;24.30;;
34902;SDS011;21114;44.840;0.214;2024-01-15T10:10:38;30.55;;;27.23;;
34902;SDS011;21114;44.840;0.214;2024-01-15T10:13:05;29.65;;;23.67;;
34902;SDS011;21114;44.840;0.214;2024-01-15T10:15:35;29.48;;;25.20;;
34902;SDS011;21114;44.840;0.214;2024-01-15T10:18:49;35.60;;;28.10;;
34902;SDS011;21114;44.840;0.214;2024-01-15T10:21:15;33.67;;;28.90;;
34902;SDS011;21114;44.840;0.214;2024-01-15T10:23:41;27.42;;;23.80;;
34902;SDS011;21114;44.840;0.214;2024-01-15T10:26:08;30.85;;;24.75;;
34902;SDS011;21114;44.840;0.214;2024-01-15T10:28:34;30.75;;;25.38;;
34902;SDS011;21114;44.840;0.214;2024-01-15T10:31:00;27.77;;;24.75;;
34902;SDS011;21114;44.840;0.214;2024-01-15T10:33:26;28.10;;;24.40;;
34902;SDS011;21114;44.840;0.214;2024-01-15T10:35:56;27.25;;;22.40;;
34902;SDS011;21114;44.840;0.214;2024-01-15T10:39:13;28.50;;;24.38;;
34902;SDS011;21114;44.840;0.214;2024-01-15T10:42:30;28.42;;;25.02;;
34902;SDS011;21114;44.840;0.214;2024-01-15T10:44:56;25.98;;;23.20;;
34902;SDS011;21114;44.840;0.214;2024-01-15T10:47:22;28.65;;;23.40;;
34902;SDS011;21114;44.840;0.214;2024-01-15T10:49:48;30.83;;;25.73;;
34902;SDS011;21114;44.840;0.214;2024-01-15T10:53:04;28.75;;;23.98;;
34902;SDS011;21114;44.840;0.214;2024-01-15T10:56:18;26.35;;;22.95;;
34902;SDS011;21114;44.840;0.214;2024-01-15T10:59:33;24.98;;;22.27;;
34902;SDS011;21114;44.840;0.214;2024-01-15T11:02:00;26.13;;;23.15;;
34902;SDS011;21114;44.840;0.214;2024-01-15T11:04:26;29.90;;;24.35;;
34902;SDS011;21114;44.840;0.214;2024-01-15T11:06:53;29.85;;;25.33;;
34902;SDS011;21114;44.840;0.214;2024-01-15T11:09:19;32.92;;;26.70;;
34902;SDS011;21114;44.840;0.214;2024-01-15T11:11:46;31.65;;;27.58;;
34902;SDS011;21114;44.840;0.214;2024-01-15T11:15:01;33.38;;;28.88;;
34902;SDS011;21114;44.840;0.214;2024-01-15T11:18:16;29.77;;;25.77;;
34902;SDS011;21114;44.840;0.214;2024-01-15T11:21:02;28.73;;;25.00;;
34902;SDS011;21114;44.840;0.214;2024-01-15T11:24:33;29.63;;;25.95;;
34902;SDS011;21114;44.840;0.214;2024-01-15T11:27:49;32.03;;;27.75;;
34902;SDS011;21114;44.840;0.214;2024-01-15T11:31:04;27.27;;;23.20;;
34902;SDS011;21114;44.840;0.214;2024-01-15T11:33:33;26.98;;;23.65;;
34902;SDS011;21114;44.840;0.214;2024-01-15T11:40:07;31.23;;;24.05;;
34902;SDS011;21114;44.840;0.214;2024-01-15T11:42:36;29.98;;;22.88;;
34902;SDS011;21114;44.840;0.214;2024-01-15T11:45:03;26.23;;;23.42;;
34902;SDS011;21114;44.840;0.214;2024-01-15T11:50:45;29.23;;;24.70;;
34902;SDS011;21114;44.840;0.214;2024-01-15T11:53:55;26.58;;;22.58;;
34902;SDS011;21114;44.840;0.214;2024-01-15T11:56:59;29.15;;;23.27;;
34902;SDS011;21114;44.840;0.214;2024-01-15T12:00:15;25.33;;;22.58;;
34902;SDS011;21114;44.840;0.214;2024-01-15T12:03:31;28.88;;;24.10;;
34902;SDS011;21114;44.840;0.214;2024-01-15T12:06:43;28.50;;;24.83;;
34902;SDS011;21114;44.840;0.214;2024-01-15T12:09:09;28.80;;;24.77;;
34902;SDS011;21114;44.840;0.214;2024-01-15T12:11:35;28.95;;;24.00;;
34902;SDS011;21114;44.840;0.214;2024-01-15T12:14:50;30.63;;;24.25;;
34902;SDS011;21114;44.840;0.214;2024-01-15T12:17:16;30.50;;;25.10;;
34902;SDS011;21114;44.840;0.214;2024-01-15T12:20:31;31.92;;;26.42;;
34902;SDS011;21114;44.840;0.214;2024-01-15T12:23:46;30.90;;;25.73;;
34902;SDS011;21114;44.840;0.214;2024-01-15T12:26:13;32.65;;;28.33;;
34902;SDS011;21114;44.840;0.214;2024-01-15T12:28:39;31.55;;;26.00;;
34902;SDS011;21114;44.840;0.214;2024-01-15T12:31:05;32.83;;;24.83;;
34902;SDS011;21114;44.840;0.214;2024-01-15T12:33:32;33.85;;;26.70;;
34902;SDS011;21114;44.840;0.214;2024-01-15T12:36:47;34.97;;;24.75;;
34902;SDS011;21114;44.840;0.214;2024-01-15T12:39:13;42.92;;;28.40;;
34902;SDS011;21114;44.840;0.214;2024-01-15T12:42:27;35.92;;;27.00;;
34902;SDS011;21114;44.840;0.214;2024-01-15T12:44:55;33.15;;;25.38;;
34902;SDS011;21114;44.840;0.214;2024-01-15T12:47:42;31.95;;;25.60;;
34902;SDS011;21114;44.840;0.214;2024-01-15T12:50:09;35.72;;;26.70;;
34902;SDS011;21114;44.840;0.214;2024-01-15T12:53:24;32.92;;;26.63;;
34902;SDS011;21114;44.840;0.214;2024-01-15T12:55:50;34.00;;;26.80;;
34902;SDS011;21114;44.840;0.214;2024-01-15T12:58:17;33.63;;;28.55;;
34902;SDS011;21114;44.840;0.214;2024-01-15T13:00:43;40.15;;;29.80;;
34902;SDS011;21114;44.840;0.214;2024-01-15T13:03:09;37.58;;;27.95;;
34902;SDS011;21114;44.840;0.214;2024-01-15T13:05:35;33.88;;;27.63;;
34902;SDS011;21114;44.840;0.214;2024-01-15T13:08:01;38.60;;;27.85;;
34902;SDS011;21114;44.840;0.214;2024-01-15T13:10:28;33.90;;;27.65;;
34902;SDS011;21114;44.840;0.214;2024-01-15T13:12:55;33.13;;;26.30;;
34902;SDS011;21114;44.840;0.214;2024-01-15T13:15:21;35.90;;;27.00;;
34902;SDS011;21114;44.840;0.214;2024-01-15T13:18:36;35.83;;;29.38;;
34902;SDS011;21114;44.840;0.214;2024-01-15T13:21:02;32.03;;;27.88;;
34902;SDS011;21114;44.840;0.214;2024-01-15T13:23:28;36.17;;;28.60;;
34902;SDS011;21114;44.840;0.214;2024-01-15T13:25:54;35.45;;;29.52;;
34902;SDS011;21114;44.840;0.214;2024-01-15T13:28:20;34.92;;;27.95;;
34902;SDS011;21114;44.840;0.214;2024-01-15T13:30:46;35.05;;;26.95;;
34902;SDS011;21114;44.840;0.214;2024-01-15T13:33:12;33.65;;;28.38;;
34902;SDS011;21114;44.840;0.214;2024-01-15T13:35:38;42.53;;;32.70;;
34902;SDS011;21114;44.840;0.214;2024-01-15T13:38:05;36.47;;;27.95;;
34902;SDS011;21114;44.840;0.214;2024-01-15T13:40:31;41.00;;;31.60;;
34902;SDS011;21114;44.840;0.214;2024-01-15T13:43:53;36.90;;;29.02;;
34902;SDS011;21114;44.840;0.214;2024-01-15T13:47:07;43.63;;;30.73;;
34902;SDS011;21114;44.840;0.214;2024-01-15T13:49:34;37.22;;;30.77;;
34902;SDS011;21114;44.840;0.214;2024-01-15T13:52:48;40.80;;;30.65;;
34902;SDS011;21114;44.840;0.214;2024-01-15T13:55:14;35.08;;;29.77;;
34902;SDS011;21114;44.840;0.214;2024-01-15T13:57:40;36.25;;;26.90;;
34902;SDS011;21114;44.840;0.214;2024-01-15T14:00:07;40.65;;;30.73;;
34902;SDS011;21114;44.840;0.214;2024-01-15T14:02:36;43.55;;;33.85;;
34902;SDS011;21114;44.840;0.214;2024-01-15T14:05:51;41.47;;;29.98;;
34902;SDS011;21114;44.840;0.214;2024-01-15T14:08:17;40.22;;;29.75;;
34902;SDS011;21114;44.840;0.214;2024-01-15T14:10:43;44.00;;;31.08;;
34902;SDS011;21114;44.840;0.214;2024-01-15T14:13:10;48.38;;;33.50;;
34902;SDS011;21114;44.840;0.214;2024-01-15T14:15:36;41.83;;;29.33;;
34902;SDS011;21114;44.840;0.214;2024-01-15T14:18:02;41.78;;;29.85;;
34902;SDS011;21114;44.840;0.214;2024-01-15T14:21:17;46.30;;;29.08;;
34902;SDS011;21114;44.840;0.214;2024-01-15T14:23:43;49.92;;;33.45;;
34902;SDS011;21114;44.840;0.214;2024-01-15T14:26:09;43.90;;;31.58;;
34902;SDS011;21114;44.840;0.214;2024-01-15T14:28:35;43.03;;;30.30;;
34902;SDS011;21114;44.840;0.214;2024-01-15T14:31:01;50.53;;;33.35;;
34902;SDS011;21114;44.840;0.214;2024-01-15T14:34:16;48.67;;;32.65;;
34902;SDS011;21114;44.840;0.214;2024-01-15T14:36:43;45.42;;;29.00;;
34902;SDS011;21114;44.840;0.214;2024-01-15T14:39:09;47.67;;;32.75;;
34902;SDS011;21114;44.840;0.214;2024-01-15T14:42:23;40.58;;;28.42;;
34902;SDS011;21114;44.840;0.214;2024-01-15T14:44:49;41.28;;;32.22;;
34902;SDS011;21114;44.840;0.214;2024-01-15T14:47:15;52.45;;;35.08;;
34902;SDS011;21114;44.840;0.214;2024-01-15T14:49:41;44.15;;;30.90;;
34902;SDS011;21114;44.840;0.214;2024-01-15T14:52:07;43.90;;;29.55;;
34902;SDS011;21114;44.840;0.214;2024-01-15T14:54:33;49.28;;;34.38;;
34902;SDS011;21114;44.840;0.214;2024-01-15T14:57:00;54.30;;;33.92;;